Terminal Aerodrome Forecast
Issued by NWS

Home | Current Version | Previous Version | Text Only | Print | Product List | Glossary On
Versions: 1 2 3 4 5 6 7 8 9 10 11 12 13 14
176
FTUS42 KTBW 231135
TAFRSW
TAF
KRSW 231135Z 2312/2412 10004KT P6SM FEW030 SCT100 BKN250
     FM231400 15009KT P6SM SCT030 BKN250
     FM231700 22010G15KT P6SM BKN050 OVC100
     FM232000 22012KT P6SM VCSH SCT020 BKN050
     FM232300 24008KT P6SM SCT015 BKN050
     FM240900 20003KT P6SM SCT015 BKN030=

USA.gov is the U.S. government's official web portal to all federal, state and local government web resources and services.